Time;durP1;ratioP1;P1;durP2;ratioP2;P2;SDS_P1;SDS_P2;PMS_P1;PMS_P2;Temp;Humidity;BMP_temperature;BMP_pressure;BME280_temperature;BME280_humidity;BME280_pressure;Samples;Min_cycle;Max_cycle;Signal;HPM_P1;HPM_P2
2024/04/03 00:01:00;;;;;;;3.35;0.90;;;;;;;;;;2065112;28;20485;-77
2024/04/03 00:02:00;;;;;;;;;;;;;;;;;;2064646;28;20050;-78
2024/04/03 00:03:01;;;;;;;3.87;1.20;;;;;;;;;;2066537;28;19968;-78
2024/04/03 00:04:03;;;;;;;;;;;;;;;;;;2065289;28;20046;-79
2024/04/03 00:05:03;;;;;;;;;;;;;;;;;;2068515;28;19922;-78
2024/04/03 00:06:05;;;;;;;4.87;1.10;;;;;;;;;;2067606;28;19925;-78
2024/04/03 00:07:06;;;;;;;4.03;0.90;;;;;;;;;;2065308;28;20056;-79
2024/04/03 00:08:07;;;;;;;6.20;1.58;;;;;;;;;;2066887;28;20056;-78
2024/04/03 00:09:08;;;;;;;;;;;;;;;;;;2066662;28;20104;-78
2024/04/03 00:10:09;;;;;;;3.63;1.23;;;;;;;;;;2068313;28;19926;-78
2024/04/03 00:11:10;;;;;;;;;;;;;;;;;;2074393;28;20049;-78
2024/04/03 00:12:11;;;;;;;4.78;1.13;;;;;;;;;;2075306;28;20008;-78
2024/04/03 00:13:12;;;;;;;;;;;;;;;;;;2074224;28;20050;-78
2024/04/03 00:14:14;;;;;;;4.87;1.20;;;;;;;;;;2074147;28;19924;-78
2024/04/03 00:15:16;;;;;;;3.90;1.10;;;;;;;;;;2072559;28;20058;-78
2024/04/03 00:16:16;;;;;;;3.40;1.13;;;;;;;;;;2074929;28;20524;-78
2024/04/03 00:17:17;;;;;;;;;;;;;;;;;;2077007;28;20133;-78
2024/04/03 00:18:18;;;;;;;5.67;1.27;;;;;;;;;;2074630;28;21514;-78
2024/04/03 00:19:19;;;;;;;;;;;;;;;;;;2074003;28;20398;-79
2024/04/03 00:20:20;;;;;;;9.15;1.05;;;;;;;;;;2075317;28;19925;-78
2024/04/03 00:21:20;;;;;;;;;;;;;;;;;;2076031;28;20049;-78
2024/04/03 00:22:22;;;;;;;3.07;1.10;;;;;;;;;;2073987;28;20016;-78
2024/04/03 00:23:23;;;;;;;5.70;1.10;;;;;;;;;;2074197;28;20457;-78
2024/04/03 00:24:23;;;;;;;;;;;;;;;;;;2074477;28;20049;-78
2024/04/03 00:25:24;;;;;;;7.37;1.10;;;;;;;;;;2074688;28;20360;-78
2024/04/03 00:26:26;;;;;;;;;;;;;;;;;;2075905;28;20600;-78
2024/04/03 00:27:27;;;;;;;3.58;0.90;;;;;;;;;;2077964;28;19932;-78
2024/04/03 00:28:28;;;;;;;;;;;;;;;;;;2074738;28;20075;-77
2024/04/03 00:29:30;;;;;;;6.32;1.52;;;;;;;;;;2074149;28;19925;-77
2024/04/03 00:30:37;;;;;;;5.00;1.20;;;;;;;;;;2073504;28;20701;-78
2024/04/03 00:31:38;;;;;;;3.80;0.95;;;;;;;;;;2073860;28;20058;-78
2024/04/03 00:32:38;;;;;;;;;;;;;;;;;;2074837;28;20049;-78
2024/04/03 00:33:40;;;;;;;3.17;0.87;;;;;;;;;;2075563;28;19925;-78
2024/04/03 00:34:41;;;;;;;5.80;1.40;;;;;;;;;;2075801;28;20068;-76
2024/04/03 00:35:43;;;;;;;;;;;;;;;;;;2076364;28;20511;-78
2024/04/03 00:36:44;;;;;;;9.40;1.42;;;;;;;;;;2075910;28;19929;-78
2024/04/03 00:37:45;;;;;;;;;;;;;;;;;;2076099;28;20144;-78
2024/04/03 00:38:46;;;;;;;5.35;1.50;;;;;;;;;;2075188;28;20428;-79
2024/04/03 00:39:46;;;;;;;;;;;;;;;;;;2076330;28;20057;-79
2024/04/03 00:40:53;;;;;;;5.40;1.00;;;;;;;;;;2075451;28;20023;-78
2024/04/03 00:41:55;;;;;;;6.18;1.10;;;;;;;;;;2074594;28;20053;-78
2024/04/03 00:42:56;;;;;;;9.50;1.52;;;;;;;;;;2076771;28;20494;-78
2024/04/03 00:43:56;;;;;;;;;;;;;;;;;;2075392;28;20049;-77
2024/04/03 00:44:58;;;;;;;3.93;1.73;;;;;;;;;;2075531;28;20437;-78
2024/04/03 00:46:00;;;;;;;4.30;1.02;;;;;;;;;;2075807;28;20053;-77
2024/04/03 00:47:03;;;;;;;4.47;0.98;;;;;;;;;;2067441;28;20077;-78
2024/04/03 00:48:04;;;;;;;4.43;0.90;;;;;;;;;;2071950;28;20057;-77
2024/04/03 00:49:05;;;;;;;7.50;2.13;;;;;;;;;;2065876;28;20074;-77
2024/04/03 00:50:07;;;;;;;;;;;;;;;;;;2078671;28;20052;-77
2024/04/03 00:51:07;;;;;;;7.68;1.42;;;;;;;;;;2077894;28;19928;-78
2024/04/03 00:52:08;;;;;;;;;;;;;;;;;;2076342;28;20049;-77
2024/04/03 00:53:10;;;;;;;5.53;1.70;;;;;;;;;;2076166;28;19924;-78
2024/04/03 00:54:11;;;;;;;5.95;1.80;;;;;;;;;;2074958;28;20045;-74
2024/04/03 00:55:11;;;;;;;;;;;;;;;;;;2076135;28;20058;-74
2024/04/03 00:56:13;;;;;;;8.50;1.50;;;;;;;;;;2074585;28;19928;-74
2024/04/03 00:57:15;;;;;;;5.28;1.08;;;;;;;;;;2075419;28;20506;-73
2024/04/03 00:58:16;;;;;;;7.63;1.38;;;;;;;;;;2074840;28;20133;-74
2024/04/03 00:59:18;;;;;;;4.28;0.98;;;;;;;;;;2075936;28;20046;-73
2024/04/03 01:00:20;;;;;;;9.82;1.48;;;;;;;;;;2074846;28;20081;-73
2024/04/03 01:01:22;;;;;;;4.70;1.00;;;;;;;;;;2074375;28;20049;-73
2024/04/03 01:02:23;;;;;;;5.53;1.20;;;;;;;;;;2076653;28;20045;-73
2024/04/03 01:03:24;;;;;;;6.95;1.30;;;;;;;;;;2072112;28;20058;-72
2024/04/03 01:04:26;;;;;;;;;;;;;;;;;;2075672;28;20398;-73
2024/04/03 01:05:26;;;;;;;4.55;1.13;;;;;;;;;;2074750;28;20453;-73
2024/04/03 01:06:27;;;;;;;;;;;;;;;;;;2077359;28;20057;-73
2024/04/03 01:07:29;;;;;;;3.53;0.97;;;;;;;;;;2075997;28;20016;-73
2024/04/03 01:08:30;;;;;;;6.10;1.10;;;;;;;;;;2075997;28;20115;-72
2024/04/03 01:09:30;;;;;;;;;;;;;;;;;;2076096;28;20895;-73
2024/04/03 01:10:31;;;;;;;7.13;1.50;;;;;;;;;;2075756;28;19926;-73
2024/04/03 01:11:33;;;;;;;;;;;;;;;;;;2076339;28;20053;-73
2024/04/03 01:12:33;;;;;;;;;;;;;;;;;;2077302;28;19925;-72
2024/04/03 01:13:34;;;;;;;9.75;1.42;;;;;;;;;;2075791;28;19927;-73
2024/04/03 01:14:35;;;;;;;;;;;;;;;;;;2077046;28;20176;-73
2024/04/03 01:15:38;;;;;;;7.60;1.03;;;;;;;;;;2077353;28;19924;-73
2024/04/03 01:16:40;;;;;;;10.48;1.23;;;;;;;;;;2075432;28;20532;-73
2024/04/03 01:17:41;;;;;;;7.55;1.23;;;;;;;;;;2078692;28;20410;-74
2024/04/03 01:18:41;;;;;;;;;;;;;;;;;;2077105;28;20159;-72
2024/04/03 01:19:43;;;;;;;5.50;1.53;;;;;;;;;;2075741;28;19925;-72
2024/04/03 01:20:44;;;;;;;5.18;1.27;;;;;;;;;;2077055;28;20065;-73
2024/04/03 01:21:44;;;;;;;;;;;;;;;;;;2075172;28;20065;-73
2024/04/03 01:22:45;;;;;;;7.43;1.33;;;;;;;;;;2076781;28;19922;-73
2024/04/03 01:23:51;;;;;;;;;;;;;;;;;;2076145;28;20049;-73
2024/04/03 01:24:52;;;;;;;4.72;0.88;;;;;;;;;;2076042;28;20480;-73
2024/04/03 01:25:52;;;;;;;;;;;;;;;;;;2075871;28;20157;-72
2024/04/03 01:26:53;;;;;;;5.57;1.77;;;;;;;;;;2076969;28;19940;-73
2024/04/03 01:27:55;;;;;;;;;;;;;;;;;;2076915;28;20107;-72
2024/04/03 01:28:55;;;;;;;6.35;1.25;;;;;;;;;;2075823;28;20019;-73
2024/04/03 01:29:56;;;;;;;;;;;;;;;;;;2076621;28;20620;-73
2024/04/03 01:30:56;;;;;;;6.20;1.23;;;;;;;;;;2075088;28;20050;-73
2024/04/03 01:31:58;;;;;;;;;;;;;;;;;;2067461;28;21180;-73
2024/04/03 01:32:59;;;;;;;7.85;1.10;;;;;;;;;;2067893;28;19925;-72
2024/04/03 01:33:59;;;;;;;;;;;;;;;;;;2066817;28;20050;-73
2024/04/03 01:35:00;;;;;;;9.10;2.00;;;;;;;;;;2066377;28;20554;-74
2024/04/03 01:36:02;;;;;;;;;;;;;;;;;;2067603;28;20088;-74
2024/04/03 01:37:03;;;;;;;3.85;0.82;;;;;;;;;;2066792;28;19925;-73
2024/04/03 01:38:03;;;;;;;;;;;;;;;;;;2068420;28;20093;-74
2024/04/03 01:39:06;;;;;;;6.85;1.42;;;;;;;;;;2066338;28;19926;-73
2024/04/03 01:40:08;;;;;;;4.90;1.60;;;;;;;;;;2067089;28;20054;-74
2024/04/03 01:41:09;;;;;;;7.90;1.40;;;;;;;;;;2067654;28;20057;-74
2024/04/03 01:42:10;;;;;;;;;;;;;;;;;;2068143;28;20057;-74
2024/04/03 01:43:12;;;;;;;11.27;1.67;;;;;;;;;;2067485;28;19926;-74
2024/04/03 01:44:13;;;;;;;8.30;1.33;;;;;;;;;;2070249;28;20513;-72
2024/04/03 01:45:13;;;;;;;;;;;;;;;;;;2068727;28;20082;-73
2024/04/03 01:46:14;;;;;;;7.67;1.13;;;;;;;;;;2067969;28;19921;-74
2024/04/03 01:47:15;;;;;;;;;;;;;;;;;;2067472;28;20077;-74
2024/04/03 01:48:16;;;;;;;4.82;1.10;;;;;;;;;;2066564;28;19932;-74
2024/04/03 01:49:17;;;;;;;;;;;;;;;;;;2068707;28;20679;-74
2024/04/03 01:50:19;;;;;;;8.77;2.00;;;;;;;;;;2067038;28;19990;-73
2024/04/03 01:51:20;;;;;;;6.90;1.10;;;;;;;;;;2066189;28;20053;-74
2024/04/03 01:52:21;;;;;;;5.88;0.98;;;;;;;;;;2067729;28;20042;-74
2024/04/03 01:53:22;;;;;;;;;;;;;;;;;;2068303;28;20459;-74
2024/04/03 01:54:26;;;;;;;7.63;1.53;;;;;;;;;;2066891;28;19940;-74
2024/04/03 01:55:28;;;;;;;6.25;1.10;;;;;;;;;;2068717;28;20057;-73
2024/04/03 01:56:30;;;;;;;4.53;1.20;;;;;;;;;;2068655;28;20058;-73
2024/04/03 01:57:31;;;;;;;9.00;1.42;;;;;;;;;;2067816;28;20076;-73
2024/04/03 01:58:31;;;;;;;;;;;;;;;;;;2067586;28;20156;-74
2024/04/03 01:59:33;;;;;;;7.57;1.37;;;;;;;;;;2066808;28;19928;-74
2024/04/03 02:00:34;;;;;;;7.05;1.88;;;;;;;;;;2067821;28;20046;-74
2024/04/03 02:01:34;;;;;;;;;;;;;;;;;;2067463;28;20588;-74
2024/04/03 02:02:35;;;;;;;7.33;1.30;;;;;;;;;;2067358;28;19926;-73
2024/04/03 02:03:36;;;;;;;;;;;;;;;;;;2068566;28;20460;-74
2024/04/03 02:04:37;;;;;;;5.38;1.05;;;;;;;;;;2065256;28;19932;-74
2024/04/03 02:05:37;;;;;;;;;;;;;;;;;;2068854;28;20081;-74
2024/04/03 02:06:38;;;;;;;7.23;1.13;;;;;;;;;;2067990;28;19926;-74
2024/04/03 02:07:40;;;;;;;;;;;;;;;;;;2068694;28;20057;-73
2024/04/03 02:08:40;;;;;;;;;;;;;;;;;;2068947;28;19928;-73
2024/04/03 02:09:43;;;;;;;5.83;1.30;;;;;;;;;;2067004;28;19921;-73
2024/04/03 02:10:43;;;;;;;10.90;1.42;;;;;;;;;;2067775;28;20046;-74
2024/04/03 02:11:45;;;;;;;;;;;;;;;;;;2069920;28;20429;-74
2024/04/03 02:12:46;;;;;;;9.00;1.45;;;;;;;;;;2065427;28;19944;-74
2024/04/03 02:13:46;;;;;;;;;;;;;;;;;;2067851;28;20500;-74
2024/04/03 02:14:47;;;;;;;7.33;1.53;;;;;;;;;;2066441;28;20254;-78
2024/04/03 02:15:52;;;;;;;;;;;;;;;;;;2067645;28;20061;-78
2024/04/03 02:16:54;;;;;;;8.80;1.30;;;;;;;;;;2066196;28;19995;-78
2024/04/03 02:17:55;;;;;;;7.55;1.10;;;;;;;;;;2067089;28;20201;-78
2024/04/03 02:18:55;;;;;;;;;;;;;;;;;;2068604;28;20414;-78
2024/04/03 02:19:57;;;;;;;7.10;1.37;;;;;;;;;;2065466;28;19917;-78
2024/04/03 02:20:58;;;;;;;5.22;1.23;;;;;;;;;;2067607;28;20460;-78
2024/04/03 02:21:58;;;;;;;;;;;;;;;;;;2068336;28;20132;-78
2024/04/03 02:22:59;;;;;;;4.87;1.47;;;;;;;;;;2075596;28;19968;-78
2024/04/03 02:24:00;;;;;;;;;;;;;;;;;;2076413;28;20654;-76
2024/04/03 02:25:03;;;;;;;8.60;1.30;;;;;;;;;;2073492;28;20286;-75
2024/04/03 02:26:04;;;;;;;5.35;1.27;;;;;;;;;;2075923;28;20049;-77
2024/04/03 02:27:05;;;;;;;;;;;;;;;;;;2075769;28;20045;-77
2024/04/03 02:28:06;;;;;;;4.55;1.50;;;;;;;;;;2074936;28;19978;-77
2024/04/03 02:29:07;;;;;;;;;;;;;;;;;;2076515;28;20061;-77
2024/04/03 02:30:08;;;;;;;8.43;1.17;;;;;;;;;;2077768;28;19928;-76
2024/04/03 02:31:10;;;;;;;4.63;0.98;;;;;;;;;;2073550;28;20822;-77
2024/04/03 02:32:11;;;;;;;5.30;0.98;;;;;;;;;;2067993;28;20061;-77
2024/04/03 02:33:11;;;;;;;;;;;;;;;;;;2068832;28;20049;-77
2024/04/03 02:34:13;;;;;;;3.73;1.20;;;;;;;;;;2065527;28;19940;-77
2024/04/03 02:35:14;;;;;;;6.55;1.30;;;;;;;;;;2067476;28;20344;-75
2024/04/03 02:36:15;;;;;;;;;;;;;;;;;;2063832;28;20057;-77
2024/04/03 02:37:15;;;;;;;4.53;1.47;;;;;;;;;;2066952;28;19932;-77
2024/04/03 02:38:17;;;;;;;;;;;;;;;;;;2066828;28;20444;-77
2024/04/03 02:39:18;;;;;;;7.40;1.50;;;;;;;;;;2068675;28;20010;-76
2024/04/03 02:40:20;;;;;;;;;;;;;;;;;;2068072;28;20058;-77
2024/04/03 02:41:21;;;;;;;5.03;1.20;;;;;;;;;;2066913;28;19933;-77
2024/04/03 02:42:23;;;;;;;;;;;;;;;;;;2068727;28;20049;-77
2024/04/03 02:43:24;;;;;;;3.70;0.95;;;;;;;;;;2067980;28;20393;-76
2024/04/03 02:44:25;;;;;;;;;;;;;;;;;;2067759;28;20053;-77
2024/04/03 02:45:25;;;;;;;6.97;1.77;;;;;;;;;;2068232;28;20364;-77
2024/04/03 02:46:27;;;;;;;;;;;;;;;;;;2068719;28;20050;-77
2024/04/03 02:47:28;;;;;;;5.65;0.98;;;;;;;;;;2068190;28;19926;-77
2024/04/03 02:48:28;;;;;;;;;;;;;;;;;;2068355;28;20162;-77
2024/04/03 02:49:29;;;;;;;8.47;1.33;;;;;;;;;;2066668;28;20021;-76
2024/04/03 02:50:31;;;;;;;;;;;;;;;;;;2069627;28;20439;-76
2024/04/03 02:51:31;;;;;;;;;;;;;;;;;;2068406;28;20386;-76
2024/04/03 02:52:32;;;;;;;4.43;1.00;;;;;;;;;;2065332;28;19968;-76
2024/04/03 02:53:33;;;;;;;;;;;;;;;;;;2068233;28;20049;-77
2024/04/03 02:54:34;;;;;;;5.03;0.70;;;;;;;;;;2067495;28;19977;-76
2024/04/03 02:55:37;;;;;;;5.30;1.30;;;;;;;;;;2072554;28;20460;-77
2024/04/03 02:56:38;;;;;;;6.90;1.23;;;;;;;;;;2075835;28;20053;-77
2024/04/03 02:57:38;;;;;;;;;;;;;;;;;;2075140;28;20064;-77
2024/04/03 02:58:39;;;;;;;5.07;1.10;;;;;;;;;;2074743;28;19921;-77
2024/04/03 02:59:42;;;;;;;;;;;;;;;;;;2076762;28;20420;-77
2024/04/03 03:00:42;;;;;;;6.63;1.30;;;;;;;;;;2073507;28;20012;-76
2024/04/03 03:01:43;;;;;;;;;;;;;;;;;;2075739;28;20049;-76
2024/04/03 03:02:46;;;;;;;7.03;1.30;;;;;;;;;;2074009;28;20318;-77
2024/04/03 03:03:48;;;;;;;2.90;1.20;;;;;;;;;;2075828;28;20081;-76
2024/04/03 03:04:49;;;;;;;5.97;1.38;;;;;;;;;;2073619;28;20050;-77
2024/04/03 03:05:49;;;;;;;;;;;;;;;;;;2076483;28;20058;-76
2024/04/03 03:06:50;;;;;;;8.50;1.77;;;;;;;;;;2074351;28;19924;-77
2024/04/03 03:07:52;;;;;;;;;;;;;;;;;;2077601;28;20131;-77
2024/04/03 03:08:53;;;;;;;7.20;2.05;;;;;;;;;;2075287;28;19925;-77
2024/04/03 03:09:53;;;;;;;;;;;;;;;;;;2075006;28;20045;-76
2024/04/03 03:10:57;;;;;;;6.27;1.20;;;;;;;;;;2075961;28;19944;-77
2024/04/03 03:11:58;;;;;;;4.43;1.17;;;;;;;;;;2075958;28;20050;-77
2024/04/03 03:12:59;;;;;;;;;;;;;;;;;;2077437;28;20311;-77
2024/04/03 03:14:01;;;;;;;;;;;;;;;;;;2076896;28;19932;-77
2024/04/03 03:15:02;;;;;;;4.07;1.00;;;;;;;;;;2073832;28;19925;-77
2024/04/03 03:16:02;;;;;;;;;;;;;;;;;;2075178;28;20053;-75
2024/04/03 03:17:04;;;;;;;5.00;1.13;;;;;;;;;;2075305;28;19922;-77
2024/04/03 03:18:05;;;;;;;6.72;1.33;;;;;;;;;;2075458;28;20524;-76
2024/04/03 03:19:06;;;;;;;;;;;;;;;;;;2074912;28;20057;-76
2024/04/03 03:20:08;;;;;;;4.23;1.07;;;;;;;;;;2076535;28;19925;-76
2024/04/03 03:21:09;;;;;;;5.90;1.35;;;;;;;;;;2075648;28;20068;-77
2024/04/03 03:22:09;;;;;;;;;;;;;;;;;;2075024;28;20049;-76
2024/04/03 03:23:10;;;;;;;4.07;1.10;;;;;;;;;;2075689;28;19922;-77
2024/04/03 03:24:11;;;;;;;;;;;;;;;;;;2076648;28;20091;-73
2024/04/03 03:25:12;;;;;;;10.88;1.20;;;;;;;;;;2074693;28;19925;-72
2024/04/03 03:26:14;;;;;;;;;;;;;;;;;;2075888;28;20056;-73
2024/04/03 03:27:15;;;;;;;7.80;1.13;;;;;;;;;;2075002;28;20651;-73
2024/04/03 03:28:16;;;;;;;;;;;;;;;;;;2074547;28;20137;-72
2024/04/03 03:29:17;;;;;;;9.73;1.90;;;;;;;;;;2075853;28;20327;-73
2024/04/03 03:30:18;;;;;;;;;;;;;;;;;;2075583;28;20045;-72
2024/04/03 03:31:19;;;;;;;5.50;1.50;;;;;;;;;;2073043;28;20006;-73
2024/04/03 03:32:20;;;;;;;;;;;;;;;;;;2074827;28;20049;-73
2024/04/03 03:33:21;;;;;;;4.45;1.10;;;;;;;;;;2073744;28;19925;-73
2024/04/03 03:34:21;;;;;;;;;;;;;;;;;;2075759;28;20042;-73
2024/04/03 03:35:22;;;;;;;7.20;1.13;;;;;;;;;;2077326;28;19935;-73
2024/04/03 03:36:23;;;;;;;;;;;;;;;;;;2077527;28;20693;-72
2024/04/03 03:37:25;;;;;;;5.35;1.25;;;;;;;;;;2072669;28;19971;-73
2024/04/03 03:38:26;;;;;;;4.72;1.08;;;;;;;;;;2077453;28;20057;-73
2024/04/03 03:39:26;;;;;;;;;;;;;;;;;;2075874;28;20111;-73
2024/04/03 03:40:28;;;;;;;5.57;0.97;;;;;;;;;;2075594;28;20666;-73
2024/04/03 03:41:30;;;;;;;4.50;1.35;;;;;;;;;;2075879;28;20057;-73
2024/04/03 03:42:31;;;;;;;5.45;1.38;;;;;;;;;;2075899;28;20049;-73
2024/04/03 03:43:33;;;;;;;;;;;;;;;;;;2073639;28;20045;-73
2024/04/03 03:44:33;;;;;;;;;;;;;;;;;;2073797;28;19925;-72
2024/04/03 03:45:42;;;;;;;7.33;1.20;;;;;;;;;;2075113;28;20311;-73
2024/04/03 03:46:44;;;;;;;6.95;1.27;;;;;;;;;;2073277;28;20125;-73
2024/04/03 03:47:45;;;;;;;6.22;1.50;;;;;;;;;;2073798;28;20061;-73
2024/04/03 03:52:45;;;;;;;6.95;1.50;;;;;;;;;;2074210;28;20078;-73
2024/04/03 03:53:45;;;;;;;6.18;1.48;;;;;;;;;;2075645;28;20140;-73
2024/04/03 03:54:46;;;;;;;;;;;;;;;;;;2075747;28;20137;-73
2024/04/03 03:55:48;;;;;;;6.60;1.90;;;;;;;;;;2076529;28;19925;-73
2024/04/03 03:56:50;;;;;;;7.68;1.50;;;;;;;;;;2072466;28;20095;-73
2024/04/03 03:57:50;;;;;;;7.38;1.35;;;;;;;;;;2075592;28;20104;-73
2024/04/03 03:58:52;;;;;;;;;;;;;;;;;;2075032;28;20603;-73
2024/04/03 03:59:53;;;;;;;5.40;1.10;;;;;;;;;;2074036;28;20809;-73
2024/04/03 04:00:54;;;;;;;;;;;;;;;;;;2076223;28;20050;-73
2024/04/03 04:01:55;;;;;;;6.30;1.48;;;;;;;;;;2075663;28;19924;-73
2024/04/03 04:02:55;;;;;;;;;;;;;;;;;;2074243;28;20057;-73
2024/04/03 04:03:57;;;;;;;8.07;1.50;;;;;;;;;;2074606;28;20376;-73
2024/04/03 04:04:58;;;;;;;7.50;1.55;;;;;;;;;;2075293;28;20053;-73
2024/04/03 04:05:58;;;;;;;;;;;;;;;;;;2074534;28;20382;-75
2024/04/03 04:07:00;;;;;;;4.37;1.20;;;;;;;;;;2074335;28;19932;-73
2024/04/03 04:08:01;;;;;;;3.72;1.27;;;;;;;;;;2074309;28;20119;-75
2024/04/03 04:09:02;;;;;;;;;;;;;;;;;;2073982;28;20107;-72
2024/04/03 04:10:03;;;;;;;7.17;2.00;;;;;;;;;;2071934;28;19979;-73
2024/04/03 04:11:05;;;;;;;6.15;1.10;;;;;;;;;;2075833;28;20200;-73
2024/04/03 04:12:08;;;;;;;6.35;1.30;;;;;;;;;;2076014;28;20057;-73
2024/04/03 04:13:08;;;;;;;4.40;1.27;;;;;;;;;;2073549;28;20540;-74
2024/04/03 04:14:09;;;;;;;;;;;;;;;;;;2074992;28;20050;-73
2024/04/03 04:15:10;;;;;;;6.20;1.37;;;;;;;;;;2072506;28;19929;-73
2024/04/03 04:16:11;;;;;;;4.78;1.38;;;;;;;;;;2075952;28;20050;-73
2024/04/03 04:17:12;;;;;;;;;;;;;;;;;;2075651;28;20765;-71
2024/04/03 04:18:14;;;;;;;6.27;1.30;;;;;;;;;;2078057;28;19982;-71
2024/04/03 04:19:15;;;;;;;5.22;1.35;;;;;;;;;;2076433;28;20057;-72
2024/04/03 04:20:15;;;;;;;;;;;;;;;;;;2077681;28;20050;-73
2024/04/03 04:21:16;;;;;;;5.40;1.30;;;;;;;;;;2077099;28;19983;-73
2024/04/03 04:22:18;;;;;;;;;;;;;;;;;;2077992;28;20081;-73
2024/04/03 04:23:18;;;;;;;5.20;1.15;;;;;;;;;;2075533;28;19925;-73
2024/04/03 04:24:21;;;;;;;;;;;;;;;;;;2078613;28;20172;-73
2024/04/03 04:25:21;;;;;;;5.90;1.58;;;;;;;;;;2077354;28;20035;-72
2024/04/03 04:26:23;;;;;;;;;;;;;;;;;;2076088;28;20553;-73
2024/04/03 04:27:26;;;;;;;7.43;1.50;;;;;;;;;;2076365;28;19955;-72
2024/04/03 04:28:26;;;;;;;5.88;1.30;;;;;;;;;;2075461;28;20054;-73
2024/04/03 04:29:27;;;;;;;;;;;;;;;;;;2077609;28;20124;-73
2024/04/03 04:30:29;;;;;;;3.27;1.20;;;;;;;;;;2077592;28;20289;-73
2024/04/03 04:31:31;;;;;;;7.78;1.40;;;;;;;;;;2076482;28;20516;-73
2024/04/03 04:32:32;;;;;;;2.95;1.20;;;;;;;;;;2077176;28;20945;-73
2024/04/03 04:33:34;;;;;;;;;;;;;;;;;;2078661;28;20060;-73
2024/04/03 04:34:37;;;;;;;6.97;1.60;;;;;;;;;;2076061;28;19925;-73
2024/04/03 04:35:38;;;;;;;6.05;1.27;;;;;;;;;;2074985;28;20100;-73
2024/04/03 04:36:38;;;;;;;;;;;;;;;;;;2075804;28;20625;-73
2024/04/03 04:37:40;;;;;;;7.07;1.77;;;;;;;;;;2075759;28;19973;-73
2024/04/03 04:38:41;;;;;;;7.13;1.60;;;;;;;;;;2078117;28;20049;-73
2024/04/03 04:39:41;;;;;;;;;;;;;;;;;;2076577;28;20068;-73
2024/04/03 04:40:52;;;;;;;5.67;1.40;;;;;;;;;;2076002;28;19972;-73
2024/04/03 04:41:54;;;;;;;4.85;1.30;;;;;;;;;;2076447;28;20865;-75
2024/04/03 04:42:56;;;;;;;3.80;1.17;;;;;;;;;;2079757;28;20049;-73
2024/04/03 04:43:57;;;;;;;7.53;1.77;;;;;;;;;;2076321;28;20052;-72
2024/04/03 04:44:58;;;;;;;;;;;;;;;;;;2077343;28;20096;-72
2024/04/03 04:46:00;;;;;;;4.57;1.13;;;;;;;;;;2076084;28;19920;-73
2024/04/03 04:47:01;;;;;;;6.57;1.60;;;;;;;;;;2075332;28;20088;-73
2024/04/03 04:48:02;;;;;;;;;;;;;;;;;;2078867;28;20061;-74
2024/04/03 04:49:04;;;;;;;4.37;1.23;;;;;;;;;;2077387;28;20200;-73
2024/04/03 04:50:05;;;;;;;4.10;1.73;;;;;;;;;;2077146;28;20054;-74
2024/04/03 04:51:05;;;;;;;;;;;;;;;;;;2077020;28;20049;-73
2024/04/03 04:52:06;;;;;;;6.43;1.52;;;;;;;;;;2073998;28;19917;-73
2024/04/03 04:53:08;;;;;;;;;;;;;;;;;;2075715;28;20425;-73
2024/04/03 04:54:09;;;;;;;5.18;1.33;;;;;;;;;;2076681;28;19991;-74
2024/04/03 04:55:09;;;;;;;;;;;;;;;;;;2075057;28;20049;-74
2024/04/03 04:56:10;;;;;;;5.70;1.73;;;;;;;;;;2074163;28;19929;-73
2024/04/03 04:57:15;;;;;;;;;;;;;;;;;;2077080;28;20429;-74
2024/04/03 04:58:17;;;;;;;5.55;1.70;;;;;;;;;;2076842;28;20015;-73
2024/04/03 04:59:18;;;;;;;8.00;1.40;;;;;;;;;;2075596;28;20066;-73
2024/04/03 05:00:19;;;;;;;;;;;;;;;;;;2075819;28;20077;-74
2024/04/03 05:01:20;;;;;;;5.80;1.50;;;;;;;;;;2075492;28;19929;-73
2024/04/03 05:02:21;;;;;;;;;;;;;;;;;;2077564;28;20057;-73
2024/04/03 05:03:22;;;;;;;6.25;1.77;;;;;;;;;;2077824;28;20073;-73
2024/04/03 05:04:22;;;;;;;;;;;;;;;;;;2077792;28;20056;-73
2024/04/03 05:05:23;;;;;;;4.87;1.30;;;;;;;;;;2077073;28;19928;-74
2024/04/03 05:06:25;;;;;;;;;;;;;;;;;;2077240;28;20131;-74
2024/04/03 05:07:26;;;;;;;6.90;1.60;;;;;;;;;;2076179;28;19921;-73
2024/04/03 05:08:26;;;;;;;;;;;;;;;;;;2077561;28;20071;-74
2024/04/03 05:09:28;;;;;;;5.83;1.67;;;;;;;;;;2076796;28;19921;-74
2024/04/03 05:10:30;;;;;;;5.25;1.67;;;;;;;;;;2076872;28;20049;-74
2024/04/03 05:11:30;;;;;;;6.97;1.65;;;;;;;;;;2075859;28;20081;-74
2024/04/03 05:12:31;;;;;;;;;;;;;;;;;;2076814;28;20049;-75
2024/04/03 05:13:34;;;;;;;12.13;2.17;;;;;;;;;;2075706;28;19925;-73
2024/04/03 05:14:35;;;;;;;7.78;1.70;;;;;;;;;;2076499;28;20128;-74
2024/04/03 05:15:36;;;;;;;;;;;;;;;;;;2078493;28;20045;-75
2024/04/03 05:16:36;;;;;;;7.33;1.87;;;;;;;;;;2077424;28;19940;-74
2024/04/03 05:17:38;;;;;;;;;;;;;;;;;;2077037;28;20049;-74
2024/04/03 05:18:41;;;;;;;5.95;1.77;;;;;;;;;;2076303;28;19936;-74
2024/04/03 05:19:42;;;;;;;7.03;1.65;;;;;;;;;;2075856;28;20080;-74
2024/04/03 05:20:43;;;;;;;;;;;;;;;;;;2076557;28;20054;-73
2024/04/03 05:21:44;;;;;;;8.93;1.73;;;;;;;;;;2076261;28;20044;-75
2024/04/03 05:22:45;;;;;;;6.32;1.48;;;;;;;;;;2074235;28;20054;-75
2024/04/03 05:23:46;;;;;;;;;;;;;;;;;;2076464;28;20095;-74
2024/04/03 05:24:51;;;;;;;6.75;1.55;;;;;;;;;;2075925;28;19984;-74
2024/04/03 05:25:57;;;;;;;5.60;1.80;;;;;;;;;;2075931;28;20060;-74
2024/04/03 05:26:58;;;;;;;5.70;1.48;;;;;;;;;;2077261;28;20107;-74
2024/04/03 05:27:58;;;;;;;;;;;;;;;;;;2076191;28;20098;-74
2024/04/03 05:29:00;;;;;;;6.97;1.67;;;;;;;;;;2076708;28;20611;-74
2024/04/03 05:30:02;;;;;;;8.38;1.75;;;;;;;;;;2075893;28;20054;-73
2024/04/03 05:31:04;;;;;;;3.75;1.20;;;;;;;;;;2075930;28;20065;-74
2024/04/03 05:32:05;;;;;;;7.35;1.60;;;;;;;;;;2074388;28;20092;-74
2024/04/03 05:33:07;;;;;;;10.88;1.67;;;;;;;;;;2077373;28;20049;-73
2024/04/03 05:34:08;;;;;;;8.27;2.58;;;;;;;;;;2075011;28;20160;-74
2024/04/03 05:35:08;;;;;;;;;;;;;;;;;;2077358;28;20056;-74
2024/04/03 05:36:10;;;;;;;8.33;2.17;;;;;;;;;;2076018;28;20562;-73
2024/04/03 05:37:12;;;;;;;12.73;1.55;;;;;;;;;;2075841;28;20057;-73
2024/04/03 05:38:13;;;;;;;8.68;1.77;;;;;;;;;;2076159;28;20061;-74
2024/04/03 05:39:13;;;;;;;;;;;;;;;;;;2077057;28;20046;-75
2024/04/03 05:40:14;;;;;;;10.30;2.17;;;;;;;;;;2075619;28;19921;-74
2024/04/03 05:41:16;;;;;;;;;;;;;;;;;;2075768;28;20054;-74
2024/04/03 05:42:16;;;;;;;8.13;1.83;;;;;;;;;;2076548;28;19928;-74
2024/04/03 05:43:17;;;;;;;;;;;;;;;;;;2074632;28;20063;-73
2024/04/03 05:44:19;;;;;;;9.73;1.93;;;;;;;;;;2077084;28;19921;-77
2024/04/03 05:45:21;;;;;;;8.70;1.83;;;;;;;;;;2076189;28;20046;-77
2024/04/03 05:46:22;;;;;;;7.10;1.88;;;;;;;;;;2074026;28;20050;-78
2024/04/03 05:47:22;;;;;;;;;;;;;;;;;;2076513;28;20045;-78
2024/04/03 05:48:25;;;;;;;9.77;1.77;;;;;;;;;;2075135;28;19921;-77
2024/04/03 05:49:25;;;;;;;7.10;1.70;;;;;;;;;;2073911;28;20041;-78
2024/04/03 05:50:26;;;;;;;;;;;;;;;;;;2077194;28;20060;-78
2024/04/03 05:51:29;;;;;;;6.63;1.97;;;;;;;;;;2075206;28;19925;-77
2024/04/03 05:52:30;;;;;;;6.28;1.58;;;;;;;;;;2074620;28;20536;-78
2024/04/03 05:53:30;;;;;;;;;;;;;;;;;;2075673;28;20148;-77
2024/04/03 05:54:31;;;;;;;5.80;1.77;;;;;;;;;;2074945;28;19921;-77
2024/04/03 05:55:33;;;;;;;;;;;;;;;;;;2077939;28;20140;-76
2024/04/03 05:56:35;;;;;;;6.53;1.63;;;;;;;;;;2076558;28;20342;-77
2024/04/03 05:57:38;;;;;;;5.88;1.38;;;;;;;;;;2075803;28;20054;-77
2024/04/03 05:58:40;;;;;;;5.15;1.65;;;;;;;;;;2083084;28;20045;-77
2024/04/03 05:59:43;;;;;;;9.25;1.73;;;;;;;;;;2084144;28;20053;-77
2024/04/03 06:00:46;;;;;;;5.47;1.55;;;;;;;;;;2075973;28;20050;-77
2024/04/03 06:01:48;;;;;;;7.25;1.77;;;;;;;;;;2076434;28;20042;-77
2024/04/03 06:02:49;;;;;;;8.73;2.83;;;;;;;;;;2076548;28;20077;-76
2024/04/03 06:03:49;;;;;;;;;;;;;;;;;;2077768;28;21157;-76
2024/04/03 06:04:50;;;;;;;10.33;2.07;;;;;;;;;;2075064;28;19982;-76
2024/04/03 06:05:52;;;;;;;;;;;;;;;;;;2075350;28;20053;-76
2024/04/03 06:06:53;;;;;;;6.40;2.13;;;;;;;;;;2074340;28;19929;-77
2024/04/03 06:07:59;;;;;;;6.00;1.10;;;;;;;;;;2074413;28;20145;-77
2024/04/03 06:09:00;;;;;;;5.95;1.48;;;;;;;;;;2076635;28;20054;-77
2024/04/03 06:10:01;;;;;;;4.10;1.67;;;;;;;;;;2075991;28;20077;-76
2024/04/03 06:11:03;;;;;;;6.55;2.22;;;;;;;;;;2075971;28;20050;-77
2024/04/03 06:12:03;;;;;;;;;;;;;;;;;;2074645;28;20052;-77
2024/04/03 06:13:05;;;;;;;5.90;1.52;;;;;;;;;;2075553;28;19925;-76
2024/04/03 06:14:06;;;;;;;8.32;2.08;;;;;;;;;;2075498;28;20137;-77
2024/04/03 06:15:08;;;;;;;;;;;;;;;;;;2075368;28;20072;-77
2024/04/03 06:16:09;;;;;;;9.60;2.08;;;;;;;;;;2073124;28;20342;-77
2024/04/03 06:17:11;;;;;;;;;;;;;;;;;;2074975;28;20133;-78
2024/04/03 06:18:12;;;;;;;7.15;1.55;;;;;;;;;;2076196;28;19925;-76
2024/04/03 06:19:13;;;;;;;;;;;;;;;;;;2074693;28;20049;-76
2024/04/03 06:20:14;;;;;;;4.05;1.80;;;;;;;;;;2074649;28;19921;-77
2024/04/03 06:21:20;;;;;;;;;;;;;;;;;;2074398;28;20104;-78
2024/04/03 06:22:20;;;;;;;6.25;2.08;;;;;;;;;;2073746;28;19937;-78
2024/04/03 06:23:21;;;;;;;;;;;;;;;;;;2075154;28;20136;-78
2024/04/03 06:24:22;;;;;;;6.57;2.47;;;;;;;;;;2075540;28;20270;-78
2024/04/03 06:25:23;;;;;;;;;;;;;;;;;;2076154;28;20159;-78
2024/04/03 06:26:24;;;;;;;8.38;2.05;;;;;;;;;;2074971;28;19925;-78
2024/04/03 06:27:25;;;;;;;;;;;;;;;;;;2076202;28;20053;-78
2024/04/03 06:28:25;;;;;;;6.87;2.07;;;;;;;;;;2073092;28;19921;-77
2024/04/03 06:29:27;;;;;;;;;;;;;;;;;;2074573;28;20514;-78